Time;durP1;ratioP1;P1;durP2;ratioP2;P2;SDS_P1;SDS_P2;PMS_P1;PMS_P2;Temp;Humidity;BMP_temperature;BMP_pressure;BME280_temperature;BME280_humidity;BME280_pressure;Samples;Min_cycle;Max_cycle;Signal;HPM_P1;HPM_P2
2022/07/06 00:02:27;;;;;;;3.47;2.00;;;;;;;20.73;48.25;99241.09;7016558;28;20222;-83
2022/07/06 00:05:48;;;;;;;3.57;2.57;;;;;;;21.16;47.87;99306.75;7017809;28;20216;-83
2022/07/06 00:09:10;;;;;;;4.20;2.30;;;;;;;20.88;48.28;99285.09;7025476;28;20690;-82
2022/07/06 00:12:33;;;;;;;3.13;2.03;;;;;;;20.86;48.65;99302.91;7030245;28;20254;-83
2022/07/06 00:15:54;;;;;;;2.90;2.30;;;;;;;20.43;49.54;99290.09;7010731;28;20723;-83
2022/07/06 00:19:16;;;;;;;3.73;2.60;;;;;;;20.33;49.67;99272.72;7005157;28;20203;-82
2022/07/06 00:22:38;;;;;;;2.63;2.43;;;;;;;20.23;50.31;99292.56;7005450;28;20255;-83
2022/07/06 00:25:59;;;;;;;3.00;2.67;;;;;;;19.50;51.33;99211.91;7005348;28;20293;-82
2022/07/06 00:29:22;;;;;;;6.00;2.57;;;;;;;20.40;49.90;99295.25;7004099;28;20231;-82
2022/07/06 00:32:43;;;;;;;4.27;2.47;;;;;;;20.12;50.53;99288.09;7004643;28;20278;-82
2022/07/06 00:36:06;;;;;;;2.50;2.30;;;;;;;20.24;50.91;99305.22;7005011;28;20303;-82
2022/07/06 00:39:29;;;;;;;3.40;2.27;;;;;;;20.65;49.37;99303.75;7004668;28;20213;-82
2022/07/06 00:42:50;;;;;;;4.27;2.50;;;;;;;20.34;50.58;99308.06;7004793;28;20396;-82
2022/07/06 00:46:13;;;;;;;2.70;2.50;;;;;;;20.17;49.59;99258.00;7004443;28;20287;-82
2022/07/06 00:53:14;;;;;;;10.77;2.50;;;;;;;20.36;49.82;99308.66;7019998;28;20259;-82
2022/07/06 00:56:36;;;;;;;3.97;2.73;;;;;;;19.68;50.24;99226.13;7007535;28;20215;-82
2022/07/06 00:59:57;;;;;;;3.37;2.40;;;;;;;20.15;50.37;99311.34;7006711;28;20292;-83
2022/07/06 01:03:20;;;;;;;3.77;3.47;;;;;;;20.25;49.85;99311.50;7006078;28;20699;-82
2022/07/06 01:06:42;;;;;;;3.40;2.30;;;;;;;19.86;50.96;99299.72;7005471;28;20212;-82
2022/07/06 01:10:04;;;;;;;5.57;2.67;;;;;;;19.91;50.87;99307.16;7004430;28;20323;-82
2022/07/06 01:13:27;;;;;;;2.70;2.50;;;;;;;19.90;51.36;99306.34;7005294;28;20257;-82
2022/07/06 01:16:49;;;;;;;2.80;2.53;;;;;;;19.96;50.67;99302.59;7004457;28;20200;-82
2022/07/06 01:20:14;;;;;;;8.27;2.90;;;;;;;19.98;50.46;99296.88;7003749;28;20206;-82
2022/07/06 01:23:40;;;;;;;3.40;2.87;;;;;;;20.03;50.36;99286.81;7003974;28;20367;-82
2022/07/06 01:27:01;;;;;;;2.83;2.60;;;;;;;19.72;51.08;99303.06;7003300;28;20694;-82
2022/07/06 01:30:23;;;;;;;3.00;2.80;;;;;;;19.22;51.85;99264.03;7003764;28;20234;-82
2022/07/06 01:33:45;;;;;;;4.50;2.87;;;;;;;19.21;51.89;99251.44;7003601;28;20235;-82
2022/07/06 01:37:08;;;;;;;3.80;2.40;;;;;;;19.78;51.37;99294.69;7003501;28;20668;-82
2022/07/06 01:40:29;;;;;;;3.27;2.80;;;;;;;19.48;51.12;99277.84;7002898;28;20237;-82
2022/07/06 01:43:51;;;;;;;4.20;3.03;;;;;;;19.49;52.25;99306.00;7003804;28;20765;-82
2022/07/06 01:47:12;;;;;;;4.77;3.43;;;;;;;19.40;52.03;99267.31;7002698;28;20235;-82
2022/07/06 01:50:34;;;;;;;5.00;2.77;;;;;;;19.53;52.42;99308.00;7002763;28;20769;-82
2022/07/06 01:53:57;;;;;;;4.63;3.00;;;;;;;19.78;51.30;99302.06;7002735;28;20272;-82
2022/07/06 01:57:18;;;;;;;7.10;2.90;;;;;;;19.73;51.18;99296.50;7003161;28;20223;-83
2022/07/06 02:00:40;;;;;;;3.10;2.90;;;;;;;19.62;51.48;99297.44;7002615;28;20593;-81
2022/07/06 02:04:02;;;;;;;3.43;3.13;;;;;;;18.86;53.21;99273.50;7025463;28;20308;-82
2022/07/06 02:07:23;;;;;;;2.57;2.37;;;;;;;19.21;52.77;99312.41;7034064;28;20208;-81
2022/07/06 02:10:46;;;;;;;3.13;2.77;;;;;;;19.37;52.47;99310.72;7032135;28;20364;-81
2022/07/06 02:14:07;;;;;;;3.60;2.93;;;;;;;19.34;51.92;99290.19;7054010;28;20209;-82
2022/07/06 02:17:29;;;;;;;2.77;2.57;;;;;;;19.40;52.31;99321.19;7039742;28;20217;-82
2022/07/06 02:20:51;;;;;;;5.37;3.13;;;;;;;19.48;52.10;99315.28;7031768;28;20216;-82
2022/07/06 02:24:12;;;;;;;3.63;2.80;;;;;;;19.36;51.72;99293.50;7031612;28;20214;-82
2022/07/06 02:27:35;;;;;;;2.93;2.70;;;;;;;19.52;51.68;99322.75;7030801;28;20266;-82
2022/07/06 02:30:57;;;;;;;4.70;3.43;;;;;;;19.36;51.77;99289.94;7030962;28;20275;-82
2022/07/06 02:34:18;;;;;;;3.30;3.00;;;;;;;19.56;51.53;99303.91;7029976;28;20218;-82
2022/07/06 02:37:40;;;;;;;3.70;2.90;;;;;;;19.35;52.03;99305.50;7030142;28;20242;-82
2022/07/06 02:41:01;;;;;;;4.73;2.83;;;;;;;19.34;51.96;99324.91;7030102;28;20227;-82
2022/07/06 02:44:24;;;;;;;3.50;3.13;;;;;;;19.05;51.97;99309.63;7030407;28;20719;-81
2022/07/06 02:47:46;;;;;;;3.30;3.00;;;;;;;19.16;52.85;99325.13;7029203;28;20219;-82
2022/07/06 02:51:07;;;;;;;4.30;3.30;;;;;;;18.77;53.31;99328.78;7036249;28;20205;-83
2022/07/06 02:54:29;;;;;;;3.17;2.80;;;;;;;19.03;52.90;99339.09;7043134;28;20580;-81
2022/07/06 02:57:51;;;;;;;3.80;2.70;;;;;;;18.58;52.72;99253.59;7037891;28;20283;-81
2022/07/06 03:01:14;;;;;;;4.27;3.20;;;;;;;19.16;52.40;99336.88;7037771;28;20205;-82
2022/07/06 03:04:35;;;;;;;3.73;3.43;;;;;;;18.77;54.10;99337.81;7037579;28;20230;-82
2022/07/06 03:07:57;;;;;;;3.50;3.20;;;;;;;18.38;54.78;99316.81;7037230;28;20286;-82
2022/07/06 03:11:18;;;;;;;4.60;3.40;;;;;;;18.26;55.72;99331.53;7037473;28;20204;-82
2022/07/06 03:14:40;;;;;;;3.43;3.17;;;;;;;18.52;54.61;99340.03;7038096;28;20307;-82
2022/07/06 03:18:03;;;;;;;3.50;3.20;;;;;;;18.54;54.06;99329.72;7036568;28;20213;-82
2022/07/06 03:21:24;;;;;;;5.00;3.50;;;;;;;18.41;54.88;99348.28;7036073;28;20212;-82
2022/07/06 03:24:46;;;;;;;3.43;3.13;;;;;;;18.52;54.54;99350.16;7035495;28;20702;-81
2022/07/06 03:28:07;;;;;;;3.60;3.30;;;;;;;18.20;53.93;99275.19;7035290;28;20213;-81
2022/07/06 03:31:29;;;;;;;4.27;3.27;;;;;;;18.42;54.34;99325.34;7035625;28;20285;-82
2022/07/06 03:34:52;;;;;;;4.33;3.80;;;;;;;18.46;54.94;99362.84;7035497;28;20599;-81
2022/07/06 03:38:13;;;;;;;3.67;3.37;;;;;;;18.45;54.96;99361.19;7034963;28;20205;-82
2022/07/06 03:41:35;;;;;;;3.83;3.20;;;;;;;18.52;54.38;99345.50;7035799;28;20203;-82
2022/07/06 03:44:57;;;;;;;4.43;3.60;;;;;;;18.48;54.77;99352.53;7036787;28;20237;-82
2022/07/06 03:48:18;;;;;;;4.53;3.50;;;;;;;17.75;55.90;99296.06;7034846;28;20209;-82
2022/07/06 03:51:41;;;;;;;4.17;3.87;;;;;;;18.05;56.02;99346.66;7035880;28;20212;-82
2022/07/06 03:55:03;;;;;;;3.77;3.40;;;;;;;18.25;55.03;99343.53;7035043;28;20225;-82
2022/07/06 03:58:25;;;;;;;7.40;4.23;;;;;;;18.44;54.61;99351.34;7035035;28;20208;-82
2022/07/06 04:01:46;;;;;;;4.53;3.40;;;;;;;18.00;55.71;99335.66;7035511;28;20254;-82
2022/07/06 04:05:09;;;;;;;4.37;3.97;;;;;;;18.47;55.63;99370.00;7029709;28;20217;-82
2022/07/06 04:08:31;;;;;;;4.13;3.73;;;;;;;18.32;55.28;99355.19;7034954;28;20261;-81
2022/07/06 04:11:53;;;;;;;4.40;4.00;;;;;;;18.64;54.59;99373.59;7038334;28;20242;-81
2022/07/06 04:15:15;;;;;;;4.00;3.50;;;;;;;18.32;54.07;99328.72;7039887;28;20288;-81
2022/07/06 04:18:36;;;;;;;5.40;3.63;;;;;;;18.82;54.15;99378.06;7014447;28;20619;-78
2022/07/06 04:21:58;;;;;;;3.53;3.23;;;;;;;18.80;53.93;99382.94;7022061;28;20579;-82
2022/07/06 04:25:21;;;;;;;4.73;3.97;;;;;;;18.44;55.11;99354.09;7022464;28;20213;-79
2022/07/06 04:28:42;;;;;;;5.60;3.47;;;;;;;18.80;54.28;99389.22;7029767;28;20318;-79
2022/07/06 04:32:05;;;;;;;5.07;3.40;;;;;;;18.95;53.37;99370.41;7021705;28;20224;-79
2022/07/06 04:35:26;;;;;;;4.77;4.00;;;;;;;18.86;53.30;99362.84;7031033;28;20286;-79
2022/07/06 04:38:48;;;;;;;5.17;4.60;;;;;;;18.09;56.43;99374.28;7031017;28;20339;-79
2022/07/06 04:42:11;;;;;;;4.63;4.23;;;;;;;18.24;56.48;99389.13;7013028;28;20206;-78
2022/07/06 04:45:33;;;;;;;4.87;4.07;;;;;;;18.83;54.91;99385.19;7003435;28;20702;-78
2022/07/06 04:48:54;;;;;;;5.10;3.90;;;;;;;19.04;54.76;99395.44;7027941;28;20225;-78
2022/07/06 04:52:16;;;;;;;5.53;3.87;;;;;;;19.35;54.43;99406.69;7029184;28;20297;-78
2022/07/06 04:55:37;;;;;;;7.40;4.90;;;;;;;19.45;54.07;99404.13;7025795;28;20205;-79
2022/07/06 04:59:00;;;;;;;9.17;3.50;;;;;;;20.14;52.38;99405.53;7004277;28;20209;-80
2022/07/06 05:02:22;;;;;;;5.20;3.87;;;;;;;20.59;51.10;99411.66;7004064;28;20213;-80
2022/07/06 05:05:43;;;;;;;4.50;3.80;;;;;;;20.58;51.46;99405.31;7035023;28;20202;-81
2022/07/06 05:09:05;;;;;;;3.93;3.60;;;;;;;20.61;51.09;99398.50;7040365;28;20226;-81
2022/07/06 05:12:26;;;;;;;5.73;3.60;;;;;;;21.05;50.94;99387.28;7038818;28;20295;-80
2022/07/06 05:15:49;;;;;;;3.93;3.53;;;;;;;21.23;49.54;99341.13;7035475;28;20209;-80
2022/07/06 05:19:11;;;;;;;6.87;3.63;;;;;;;22.19;47.94;99400.38;7035894;28;20238;-81
2022/07/06 05:22:33;;;;;;;6.80;4.20;;;;;;;22.57;46.53;99406.38;7044476;28;20779;-80
2022/07/06 05:25:54;;;;;;;6.13;3.80;;;;;;;22.76;46.48;99404.81;7035351;28;20611;-80
2022/07/06 05:29:16;;;;;;;3.90;3.53;;;;;;;22.75;45.85;99414.16;7031463;28;20363;-79
2022/07/06 05:32:39;;;;;;;4.73;3.53;;;;;;;22.70;45.00;99392.13;7010068;28;20237;-81
2022/07/06 05:36:00;;;;;;;5.97;3.50;;;;;;;23.15;44.73;99406.03;7036038;28;20202;-82
2022/07/06 05:39:23;;;;;;;3.80;3.20;;;;;;;23.38;42.87;99386.31;7038721;28;20213;-81
2022/07/06 05:42:44;;;;;;;7.53;3.80;;;;;;;23.35;43.12;99408.00;7038066;28;20212;-80
2022/07/06 05:46:06;;;;;;;5.37;3.53;;;;;;;23.55;43.35;99416.31;7035662;28;20838;-80
2022/07/06 05:53:08;;;;;;;4.87;3.40;;;;;;;23.19;42.25;99396.16;7017324;28;20228;-80
2022/07/06 05:56:30;;;;;;;6.67;3.50;;;;;;;23.38;41.97;99386.31;7012582;28;20201;-81
2022/07/06 05:59:51;;;;;;;4.33;3.00;;;;;;;22.63;43.34;99386.06;7014480;28;20213;-81
2022/07/06 06:03:13;;;;;;;4.60;3.60;;;;;;;23.73;42.10;99407.50;7014469;28;20233;-79
2022/07/06 06:06:36;;;;;;;3.03;2.80;;;;;;;23.80;41.18;99406.16;7008473;28;20564;-80
2022/07/06 06:09:57;;;;;;;6.93;2.97;;;;;;;24.14;40.84;99404.47;7013258;28;20226;-80
2022/07/06 06:13:19;;;;;;;4.07;3.27;;;;;;;24.15;41.44;99417.16;7015880;28;20382;-81
2022/07/06 06:16:40;;;;;;;5.33;3.27;;;;;;;24.99;39.74;99412.50;7042047;28;20201;-81
2022/07/06 06:20:04;;;;;;;3.87;3.20;;;;;;;23.99;40.86;99422.94;7047298;28;20207;-80
2022/07/06 06:23:27;;;;;;;5.20;3.30;;;;;;;23.99;39.88;99389.88;7034884;28;20724;-80
2022/07/06 06:26:48;;;;;;;4.90;3.37;;;;;;;23.99;41.56;99421.03;7016155;28;20208;-80
2022/07/06 06:30:11;;;;;;;5.70;3.27;;;;;;;24.54;40.07;99425.63;7033810;28;20235;-81
2022/07/06 06:33:33;;;;;;;4.63;3.43;;;;;;;24.48;40.34;99423.97;7040282;28;20223;-82
2022/07/06 06:36:54;;;;;;;3.57;3.27;;;;;;;24.80;39.39;99428.03;7042818;28;20213;-80
2022/07/06 06:40:17;;;;;;;4.07;3.10;;;;;;;24.52;40.45;99434.16;7038630;28;20197;-81
2022/07/06 06:43:39;;;;;;;3.73;3.37;;;;;;;24.97;39.17;99403.69;7021393;28;20217;-80
2022/07/06 06:47:00;;;;;;;5.57;3.10;;;;;;;25.87;37.29;99403.09;7014869;28;20218;-79
2022/07/06 06:50:23;;;;;;;3.83;2.90;;;;;;;25.56;37.08;99420.19;7023462;28;20319;-80
2022/07/06 06:53:45;;;;;;;9.03;3.13;;;;;;;26.14;36.93;99413.66;7026762;28;20234;-79
2022/07/06 06:57:08;;;;;;;3.73;2.87;;;;;;;26.06;36.33;99408.72;7022747;28;20344;-79
2022/07/06 07:00:29;;;;;;;3.43;2.63;;;;;;;26.46;36.21;99409.16;7017450;28;20221;-79
2022/07/06 07:03:51;;;;;;;4.73;2.90;;;;;;;26.30;36.31;99396.59;7032289;28;20228;-79
2022/07/06 07:07:13;;;;;;;4.07;2.77;;;;;;;26.35;35.26;99407.63;7034957;28;20199;-80
2022/07/06 07:10:34;;;;;;;4.63;2.77;;;;;;;26.39;36.00;99413.38;7036989;28;20227;-80
2022/07/06 07:13:57;;;;;;;4.57;2.73;;;;;;;26.54;35.56;99416.03;7039120;28;20326;-81
2022/07/06 07:17:19;;;;;;;3.83;2.67;;;;;;;26.33;36.57;99415.41;7038814;28;20205;-79
2022/07/06 07:20:41;;;;;;;3.17;2.47;;;;;;;26.99;34.64;99416.28;7007552;28;20671;-79
2022/07/06 07:24:02;;;;;;;4.97;2.60;;;;;;;27.17;34.40;99409.16;7008088;28;20228;-79
2022/07/06 07:27:24;;;;;;;6.17;2.77;;;;;;;27.44;33.11;99378.84;7018002;28;20205;-79
2022/07/06 07:30:47;;;;;;;3.37;2.57;;;;;;;27.13;33.89;99408.91;7036732;28;20249;-79
2022/07/06 07:34:08;;;;;;;5.40;2.67;;;;;;;26.11;36.57;99406.75;7037079;28;20228;-81
2022/07/06 07:37:30;;;;;;;4.60;3.10;;;;;;;26.79;34.39;99411.00;7025344;28;20195;-80
2022/07/06 07:40:54;;;;;;;6.70;4.00;;;;;;;27.50;34.60;99384.03;7032500;28;20229;-78
2022/07/06 07:44:15;;;;;;;3.83;3.00;;;;;;;28.01;33.73;99411.75;7033329;28;20221;-79
2022/07/06 07:47:38;;;;;;;6.70;3.43;;;;;;;26.49;35.42;99410.53;7032823;28;20714;-80
2022/07/06 07:51:00;;;;;;;4.13;3.10;;;;;;;27.56;33.03;99398.63;7033866;28;20231;-79
2022/07/06 07:54:21;;;;;;;3.93;2.63;;;;;;;27.93;32.62;99393.88;7034428;28;20291;-79
2022/07/06 07:57:43;;;;;;;5.57;2.80;;;;;;;27.53;33.17;99399.19;7034818;28;20208;-79
2022/07/06 08:01:05;;;;;;;3.50;3.17;;;;;;;28.02;32.62;99410.63;7031005;28;20208;-79
2022/07/06 08:04:28;;;;;;;4.77;3.10;;;;;;;28.69;31.38;99407.16;7007267;28;20227;-79
2022/07/06 08:07:49;;;;;;;8.33;2.37;;;;;;;28.75;31.03;99379.00;7006567;28;20220;-78
2022/07/06 08:11:11;;;;;;;3.70;2.83;;;;;;;28.77;31.08;99395.34;7031833;28;20228;-78
2022/07/06 08:14:32;;;;;;;3.07;2.77;;;;;;;28.36;31.44;99397.25;7032904;28;20358;-79
2022/07/06 08:17:54;;;;;;;4.47;2.60;;;;;;;28.87;31.68;99403.44;7032024;28;20248;-79
2022/07/06 08:21:17;;;;;;;2.60;2.40;;;;;;;28.70;30.64;99401.31;7031039;28;20213;-79
2022/07/06 08:24:39;;;;;;;4.37;2.87;;;;;;;28.25;31.70;99368.84;7033193;28;20761;-79
2022/07/06 08:28:01;;;;;;;4.50;2.73;;;;;;;27.55;33.23;99391.44;7032147;28;20722;-79
2022/07/06 08:31:22;;;;;;;5.00;2.93;;;;;;;27.80;33.08;99386.34;7023875;28;20275;-78
2022/07/06 08:34:44;;;;;;;2.93;2.60;;;;;;;27.83;32.49;99398.78;7004116;28;20302;-79
2022/07/06 08:38:07;;;;;;;4.57;2.43;;;;;;;29.49;30.11;99375.66;7003515;28;20204;-79
2022/07/06 08:41:30;;;;;;;4.83;3.10;;;;;;;28.96;31.18;99396.88;7005062;28;20205;-78
2022/07/06 08:44:54;;;;;;;3.03;2.63;;;;;;;29.19;30.50;99376.38;7005556;28;20227;-78
2022/07/06 08:48:16;;;;;;;5.13;2.60;;;;;;;29.47;30.10;99380.72;7003680;28;20199;-78
2022/07/06 08:51:38;;;;;;;2.83;2.57;;;;;;;29.12;31.22;99394.59;7004378;28;20225;-82
2022/07/06 08:55:01;;;;;;;3.27;2.87;;;;;;;29.69;29.96;99374.38;7004753;28;20589;-80
2022/07/06 08:58:24;;;;;;;4.63;2.53;;;;;;;29.66;30.41;99391.72;7003493;28;20257;-79
2022/07/06 09:01:47;;;;;;;4.20;2.73;;;;;;;28.54;31.22;99397.19;7025818;28;20222;-79
2022/07/06 09:05:10;;;;;;;5.53;2.80;;;;;;;28.75;31.50;99392.88;7026481;28;20226;-79
2022/07/06 09:08:32;;;;;;;3.07;2.63;;;;;;;29.23;30.61;99376.56;7030969;28;20198;-79
2022/07/06 09:11:54;;;;;;;5.57;2.67;;;;;;;29.93;29.80;99383.22;7036516;28;20227;-79
2022/07/06 09:15:16;;;;;;;2.70;2.50;;;;;;;29.75;28.96;99387.84;7035360;28;20603;-79
2022/07/06 09:18:38;;;;;;;3.67;2.63;;;;;;;29.46;30.26;99384.66;7031905;28;20208;-79
2022/07/06 09:22:00;;;;;;;3.57;2.57;;;;;;;29.10;30.02;99388.53;7034000;28;20202;-78
2022/07/06 09:25:21;;;;;;;4.67;2.80;;;;;;;26.89;33.02;99401.78;7017651;28;20229;-79
2022/07/06 09:28:45;;;;;;;4.53;2.63;;;;;;;27.49;32.96;99409.25;7004184;28;20255;-79
2022/07/06 09:32:07;;;;;;;3.03;2.83;;;;;;;28.93;30.89;99413.31;7004879;28;20827;-79
2022/07/06 09:35:31;;;;;;;3.93;2.67;;;;;;;29.81;30.22;99413.56;7026247;28;20208;-80
2022/07/06 09:38:52;;;;;;;3.97;2.40;;;;;;;30.00;29.14;99401.13;7031867;28;20205;-79
2022/07/06 09:42:14;;;;;;;6.07;2.80;;;;;;;28.79;30.58;99409.72;7032198;28;20207;-79
2022/07/06 09:45:38;;;;;;;3.73;2.50;;;;;;;28.53;31.70;99405.81;7031803;28;20235;-79
2022/07/06 09:49:01;;;;;;;4.40;2.53;;;;;;;28.95;31.02;99417.47;7022458;28;20276;-79
2022/07/06 09:52:39;;;;;;;5.70;2.83;;;;;;;30.00;29.13;99411.41;7030943;28;20323;-79
2022/07/06 09:56:01;;;;;;;6.40;3.10;;;;;;;28.79;31.20;99423.63;6946677;28;20707;-79
2022/07/06 09:59:26;;;;;;;4.23;2.40;;;;;;;29.33;30.91;99416.09;6945501;28;20213;-79
2022/07/06 10:02:49;;;;;;;3.27;2.63;;;;;;;29.79;30.01;99411.09;6944998;28;20239;-79
2022/07/06 10:06:11;;;;;;;4.20;2.67;;;;;;;30.37;28.99;99422.16;6947156;28;20220;-78
2022/07/06 10:09:33;;;;;;;4.23;2.47;;;;;;;30.67;28.38;99408.25;6948963;28;20227;-77
2022/07/06 10:12:56;;;;;;;5.17;2.90;;;;;;;30.05;28.56;99423.25;6949106;28;20293;-77
2022/07/06 10:16:18;;;;;;;5.50;3.23;;;;;;;30.22;29.46;99412.25;6949725;28;20208;-80
2022/07/06 10:19:42;;;;;;;4.33;2.73;;;;;;;30.55;28.73;99409.97;6950170;28;20200;-78
2022/07/06 10:23:04;;;;;;;3.93;2.63;;;;;;;29.43;30.42;99410.28;6947922;28;20230;-78
2022/07/06 10:26:26;;;;;;;4.67;2.57;;;;;;;29.37;30.06;99419.84;6946484;28;20211;-78
2022/07/06 10:29:48;;;;;;;7.00;2.50;;;;;;;30.14;29.30;99413.00;6939601;28;20288;-79
2022/07/06 10:33:10;;;;;;;3.63;2.87;;;;;;;31.05;27.55;99398.22;6982604;28;20268;-78
2022/07/06 10:36:37;;;;;;;4.07;2.90;;;;;;;30.51;29.10;99415.38;7019572;28;20232;-78
2022/07/06 10:43:43;;;;;;;4.67;2.80;;;;;;;29.87;29.79;99415.09;6998433;28;20219;-78
2022/07/06 10:47:05;;;;;;;3.00;2.70;;;;;;;28.83;31.85;99427.44;7033571;28;20304;-78
2022/07/06 10:50:35;;;;;;;5.20;2.50;;;;;;;29.17;30.84;99431.44;7033652;28;20728;-78
2022/07/06 10:54:01;;;;;;;2.93;2.73;;;;;;;29.08;31.09;99422.19;7034457;28;20241;-77
2022/07/06 10:57:22;;;;;;;4.47;2.70;;;;;;;29.45;31.36;99409.97;7033943;28;20230;-79
2022/07/06 11:00:51;;;;;;;4.47;2.53;;;;;;;29.83;30.28;99419.66;7027122;28;20240;-78
2022/07/06 11:04:13;;;;;;;3.70;2.40;;;;;;;29.32;30.79;99419.97;7033660;28;20317;-78
2022/07/06 11:07:50;;;;;;;2.77;2.33;;;;;;;29.90;30.98;99412.50;7033226;28;20283;-79
2022/07/06 11:11:16;;;;;;;4.73;2.80;;;;;;;29.90;29.64;99403.34;7033426;28;20242;-78
2022/07/06 11:14:38;;;;;;;5.63;2.80;;;;;;;29.07;30.85;99405.84;7032256;28;20219;-78
2022/07/06 11:18:11;;;;;;;4.23;2.20;;;;;;;29.54;30.19;99417.28;7019470;28;20256;-78
2022/07/06 11:21:35;;;;;;;5.33;2.03;;;;;;;30.44;28.87;99395.50;7027141;28;20705;-79
2022/07/06 11:24:57;;;;;;;4.27;2.60;;;;;;;30.68;28.90;99404.34;7033549;28;20231;-79
2022/07/06 11:28:20;;;;;;;3.90;2.50;;;;;;;30.05;29.35;99397.38;7031977;28;20285;-78
2022/07/06 11:31:44;;;;;;;3.13;2.47;;;;;;;30.32;29.33;99386.94;7032088;28;20319;-78
2022/07/06 11:35:06;;;;;;;5.20;2.40;;;;;;;30.33;28.90;99376.63;7031916;28;20364;-79
2022/07/06 11:38:28;;;;;;;5.87;2.40;;;;;;;29.57;29.81;99385.25;7033371;28;20227;-78
2022/07/06 11:41:49;;;;;;;4.30;2.60;;;;;;;30.30;28.62;99386.44;7033271;28;20663;-78
2022/07/06 11:45:12;;;;;;;4.87;2.27;;;;;;;31.01;27.63;99358.22;7033192;28;20296;-78
2022/07/06 11:48:34;;;;;;;4.27;2.53;;;;;;;31.42;26.01;99371.75;7025251;28;20203;-78
2022/07/06 11:51:56;;;;;;;3.23;2.17;;;;;;;30.95;27.21;99376.22;7016942;28;20236;-78
2022/07/06 11:55:17;;;;;;;2.37;2.10;;;;;;;30.87;28.13;99377.03;7009861;28;20278;-77
2022/07/06 11:58:40;;;;;;;4.83;2.20;;;;;;;29.39;29.60;99367.59;7004738;28;20607;-78
2022/07/06 12:02:05;;;;;;;2.27;2.03;;;;;;;30.88;28.35;99355.56;7025167;28;20200;-78
2022/07/06 12:05:31;;;;;;;3.33;2.27;;;;;;;28.81;29.58;99352.78;7024109;28;20235;-78
2022/07/06 12:08:54;;;;;;;5.97;2.47;;;;;;;29.44;30.50;99375.81;7018558;28;20206;-78
2022/07/06 12:12:17;;;;;;;5.20;2.47;;;;;;;30.62;29.42;99374.13;7019596;28;20219;-78
2022/07/06 12:15:38;;;;;;;4.17;2.30;;;;;;;30.21;28.45;99352.19;7008918;28;20201;-78
2022/07/06 12:19:04;;;;;;;3.47;2.40;;;;;;;30.31;28.82;99360.25;7015731;28;20214;-78
2022/07/06 12:22:26;;;;;;;2.47;1.87;;;;;;;30.44;29.88;99362.09;7017860;28;20655;-77
2022/07/06 12:25:53;;;;;;;3.03;2.53;;;;;;;30.73;28.28;99359.63;7015037;28;20211;-78
2022/07/06 12:29:15;;;;;;;5.50;2.60;;;;;;;30.46;28.95;99370.13;7008293;28;20244;-77
2022/07/06 12:32:36;;;;;;;3.10;2.33;;;;;;;29.58;29.58;99354.38;7005505;28;20319;-77
2022/07/06 12:36:10;;;;;;;3.47;2.20;;;;;;;29.77;29.69;99349.44;7002817;28;20678;-78
2022/07/06 12:39:31;;;;;;;4.93;2.40;;;;;;;29.93;29.25;99367.38;7001401;28;20194;-77
2022/07/06 12:42:53;;;;;;;3.57;2.40;;;;;;;30.08;29.78;99364.19;7002347;28;20271;-78
2022/07/06 12:46:28;;;;;;;5.77;2.57;;;;;;;29.81;29.56;99358.78;7002060;28;20210;-78
2022/07/06 12:49:49;;;;;;;6.93;2.73;;;;;;;29.27;30.52;99363.72;7004713;28;20202;-78
2022/07/06 12:53:26;;;;;;;3.00;2.40;;;;;;;30.39;29.00;99355.88;7015871;28;20232;-78
2022/07/06 12:56:58;;;;;;;7.57;2.67;;;;;;;29.99;29.26;99379.19;7010735;28;20649;-78
2022/07/06 13:00:21;;;;;;;7.03;2.60;;;;;;;30.12;29.30;99367.16;7001204;28;20207;-78
2022/07/06 13:03:42;;;;;;;5.37;2.50;;;;;;;30.21;29.24;99371.66;7001810;28;20245;-78
2022/07/06 13:07:08;;;;;;;3.03;2.30;;;;;;;29.03;30.87;99352.03;7001305;28;20251;-78
2022/07/06 13:10:31;;;;;;;4.43;2.60;;;;;;;28.93;30.78;99360.56;7000684;28;20735;-79
2022/07/06 13:13:53;;;;;;;4.63;2.67;;;;;;;28.71;31.05;99352.97;7011732;28;20228;-79
2022/07/06 13:17:14;;;;;;;4.83;2.90;;;;;;;28.47;31.64;99362.63;7017524;28;20203;-79
2022/07/06 13:20:36;;;;;;;5.80;2.97;;;;;;;28.36;32.31;99375.06;7013940;28;20290;-79
2022/07/06 13:23:57;;;;;;;2.87;2.37;;;;;;;29.07;30.91;99362.22;7005725;28;20250;-79
2022/07/06 13:27:20;;;;;;;4.13;2.60;;;;;;;29.05;30.15;99358.94;7013372;28;20211;-79
2022/07/06 13:30:42;;;;;;;5.33;2.60;;;;;;;29.17;30.22;99353.66;7005121;28;20680;-79
2022/07/06 13:34:03;;;;;;;3.87;2.57;;;;;;;28.53;31.84;99362.25;7001528;28;20239;-78
2022/07/06 13:37:25;;;;;;;3.00;2.70;;;;;;;28.90;30.69;99363.97;7001071;28;20205;-79
2022/07/06 13:40:47;;;;;;;4.67;2.50;;;;;;;29.06;30.53;99362.50;7001992;28;20217;-79
2022/07/06 13:44:11;;;;;;;7.27;2.80;;;;;;;29.49;29.12;99350.66;7002570;28;20284;-78
2022/07/06 13:47:33;;;;;;;3.80;2.20;;;;;;;28.69;30.17;99355.25;7003242;28;20219;-80
2022/07/06 13:50:55;;;;;;;5.40;2.53;;;;;;;27.68;31.45;99327.75;6999981;28;20218;-78
2022/07/06 13:54:17;;;;;;;6.10;2.43;;;;;;;29.48;29.94;99342.66;7005961;28;20244;-79
2022/07/06 13:57:42;;;;;;;4.30;2.37;;;;;;;29.60;28.98;99337.38;7026925;28;20204;-78
2022/07/06 14:01:05;;;;;;;3.40;2.13;;;;;;;28.72;29.80;99349.06;7027688;28;20248;-78
2022/07/06 14:04:26;;;;;;;5.27;2.30;;;;;;;29.17;29.59;99342.53;7025172;28;20759;-78
2022/07/06 14:07:48;;;;;;;5.43;2.20;;;;;;;29.85;28.88;99328.38;7026946;28;20337;-78
2022/07/06 14:11:10;;;;;;;4.23;2.20;;;;;;;28.46;30.08;99339.63;7027131;28;20366;-79
2022/07/06 14:14:31;;;;;;;3.90;2.53;;;;;;;28.99;30.28;99320.47;7027949;28;20230;-78
2022/07/06 14:17:54;;;;;;;4.80;2.23;;;;;;;28.69;30.55;99335.00;7029470;28;20211;-78
2022/07/06 14:21:16;;;;;;;3.03;2.40;;;;;;;28.75;30.23;99337.38;7028704;28;20290;-79
2022/07/06 14:24:37;;;;;;;2.47;1.80;;;;;;;29.26;29.48;99318.44;7035925;28;20260;-79
2022/07/06 14:27:59;;;;;;;4.43;2.90;;;;;;;29.73;28.73;99303.13;7046311;28;20214;-77
2022/07/06 14:31:21;;;;;;;5.00;2.40;;;;;;;29.92;29.01;99312.06;7028203;28;20230;-78
2022/07/06 14:34:44;;;;;;;3.43;2.03;;;;;;;29.67;27.99;99319.09;7028651;28;20255;-78
2022/07/06 14:38:06;;;;;;;7.97;2.50;;;;;;;29.34;28.67;99314.91;7011791;28;20257;-78
2022/07/06 14:41:27;;;;;;;2.33;1.93;;;;;;;29.19;29.06;99293.03;7000947;28;20244;-78
2022/07/06 14:44:49;;;;;;;5.17;2.47;;;;;;;29.69;28.34;99300.16;7000281;28;20300;-79
2022/07/06 14:48:10;;;;;;;3.40;2.00;;;;;;;29.05;29.30;99308.94;7014052;28;20255;-78
2022/07/06 14:51:33;;;;;;;4.80;2.40;;;;;;;29.94;28.35;99285.59;7034853;28;20314;-78
2022/07/06 14:54:56;;;;;;;5.30;2.20;;;;;;;30.17;27.63;99305.84;7036405;28;20235;-78
2022/07/06 14:58:18;;;;;;;3.17;1.97;;;;;;;28.73;29.19;99308.25;7034363;28;20209;-78
2022/07/06 15:01:40;;;;;;;3.33;2.03;;;;;;;28.67;28.72;99290.88;7034173;28;20683;-78
2022/07/06 15:05:01;;;;;;;1.83;1.73;;;;;;;29.01;28.72;99279.34;7006209;28;20223;-78
2022/07/06 15:08:24;;;;;;;4.97;1.90;;;;;;;29.08;28.66;99288.88;7006489;28;20203;-77
2022/07/06 15:11:46;;;;;;;3.30;2.20;;;;;;;28.45;29.42;99301.94;7007800;28;20561;-80
2022/07/06 15:15:09;;;;;;;3.37;2.07;;;;;;;29.14;28.24;99275.69;7006465;28;20239;-78
2022/07/06 15:18:30;;;;;;;2.63;2.10;;;;;;;29.44;27.82;99286.88;7004778;28;20203;-78
2022/07/06 15:21:52;;;;;;;4.43;2.10;;;;;;;29.59;27.48;99271.78;7008053;28;20220;-79
2022/07/06 15:25:15;;;;;;;5.03;2.07;;;;;;;29.57;27.72;99283.25;7008751;28;20223;-77
2022/07/06 15:28:37;;;;;;;3.63;1.70;;;;;;;29.31;27.44;99281.38;7022951;28;20209;-78
2022/07/06 15:31:58;;;;;;;3.37;2.40;;;;;;;28.60;27.72;99273.84;7034519;28;20232;-77
2022/07/06 15:35:20;;;;;;;1.80;1.63;;;;;;;29.18;27.76;99274.75;7034294;28;20226;-78
2022/07/06 15:38:41;;;;;;;2.73;2.03;;;;;;;28.55;28.57;99270.38;7033844;28;20205;-78
2022/07/06 15:42:05;;;;;;;2.33;1.90;;;;;;;28.46;28.88;99272.22;7033330;28;20234;-78
2022/07/06 15:45:28;;;;;;;2.67;2.07;;;;;;;28.69;28.26;99269.22;7017813;28;20372;-78
2022/07/06 15:48:49;;;;;;;4.70;2.07;;;;;;;28.33;28.45;99275.78;7005181;28;20251;-78
2022/07/06 15:52:11;;;;;;;7.80;1.90;;;;;;;28.10;28.42;99255.47;7005578;28;20314;-80
2022/07/06 15:55:32;;;;;;;2.93;2.07;;;;;;;27.21;29.26;99235.75;7006444;28;20195;-78
2022/07/06 15:58:55;;;;;;;2.70;2.07;;;;;;;27.85;28.54;99264.25;7016845;28;20226;-78
2022/07/06 16:02:19;;;;;;;3.93;2.10;;;;;;;28.05;28.57;99272.19;7004986;28;20206;-78
2022/07/06 16:05:40;;;;;;;3.93;1.90;;;;;;;27.47;28.97;99251.66;7024309;28;20211;-78